Time;durP1;ratioP1;P1;durP2;ratioP2;P2;SDS_P1;SDS_P2;PMS_P1;PMS_P2;Temp;Humidity;BMP_temperature;BMP_pressure;BME280_temperature;BME280_humidity;BME280_pressure;Samples;Min_cycle;Max_cycle;Signal;HPM_P1;HPM_P2
2022/11/28 00:00:59;;;;;;;15.60;9.90;;;6.50;76.40;;;;;;5028346;28;20471;-73
2022/11/28 00:03:24;;;;;;;14.60;8.30;;;6.50;76.70;;;;;;5033177;28;20196;-74
2022/11/28 00:05:51;;;;;;;16.10;8.93;;;6.50;76.70;;;;;;5032661;28;20431;-73
2022/11/28 00:08:17;;;;;;;14.10;9.30;;;6.60;76.80;;;;;;5033121;28;20212;-73
2022/11/28 00:10:43;;;;;;;17.50;9.30;;;6.60;76.70;;;;;;5030123;28;20464;-73
2022/11/28 00:13:08;;;;;;;15.00;9.87;;;6.50;76.50;;;;;;5033035;28;20427;-73
2022/11/28 00:15:34;;;;;;;14.80;9.40;;;6.50;76.70;;;;;;5032669;28;20954;-73
2022/11/28 00:17:59;;;;;;;16.40;9.70;;;6.60;76.40;;;;;;5033043;28;20189;-73
2022/11/28 00:20:25;;;;;;;15.03;9.00;;;6.50;76.40;;;;;;5029281;28;20566;-73
2022/11/28 00:22:51;;;;;;;14.47;9.13;;;6.50;76.70;;;;;;5032226;28;20207;-73
2022/11/28 00:25:17;;;;;;;17.47;10.07;;;6.50;76.80;;;;;;5032337;28;20575;-73
2022/11/28 00:27:42;;;;;;;14.03;9.00;;;6.50;76.40;;;;;;5032632;28;20614;-72
2022/11/28 00:30:09;;;;;;;14.60;9.47;;;6.50;77.00;;;;;;5028344;28;20460;-74
2022/11/28 00:32:34;;;;;;;16.60;10.07;;;6.40;77.10;;;;;;5032192;28;20198;-72
2022/11/28 00:35:00;;;;;;;15.37;10.70;;;6.30;77.80;;;;;;5032842;28;20790;-73
2022/11/28 00:37:26;;;;;;;16.40;9.83;;;6.30;78.00;;;;;;5033170;28;20624;-72
2022/11/28 00:39:51;;;;;;;18.87;10.50;;;6.30;78.30;;;;;;5030308;28;21877;-72
2022/11/28 00:42:19;;;;;;;14.67;9.60;;;6.30;78.40;;;;;;5031132;28;20201;-73
2022/11/28 00:44:45;;;;;;;19.53;9.73;;;6.20;78.40;;;;;;5031898;28;20189;-72
2022/11/28 00:47:11;;;;;;;16.70;10.57;;;6.20;78.60;;;;;;5032002;28;20470;-71
2022/11/28 00:49:37;;;;;;;17.93;10.77;;;6.00;78.90;;;;;;5033998;28;20555;-73
2022/11/28 00:52:03;;;;;;;15.60;10.00;;;6.00;79.20;;;;;;5035501;28;20260;-72
2022/11/28 00:54:28;;;;;;;15.67;9.43;;;6.00;79.50;;;;;;5033368;28;20654;-71
2022/11/28 00:56:54;;;;;;;14.03;9.57;;;6.20;79.50;;;;;;5032739;28;20517;-72
2022/11/28 00:59:19;;;;;;;15.33;8.97;;;6.30;79.50;;;;;;5033204;28;20209;-72
2022/11/28 01:01:45;;;;;;;14.40;8.90;;;6.20;79.50;;;;;;5030517;28;20216;-72
2022/11/28 01:04:13;;;;;;;16.90;9.77;;;6.30;79.30;;;;;;5039274;28;20185;-72
2022/11/28 01:06:49;;;;;;;13.20;8.37;;;6.40;79.30;;;;;;5050694;28;20173;-72
2022/11/28 01:09:18;;;;;;;15.00;8.93;;;6.40;78.90;;;;;;5052944;28;20528;-72
2022/11/28 01:11:44;;;;;;;12.40;8.63;;;6.30;79.20;;;;;;5048395;28;20452;-72
2022/11/28 01:14:11;;;;;;;13.93;7.80;;;6.40;79.30;;;;;;5043688;28;20428;-72
2022/11/28 01:16:37;;;;;;;12.33;8.37;;;6.50;78.70;;;;;;5046498;28;20431;-72
2022/11/28 01:19:02;;;;;;;14.73;8.20;;;6.50;78.60;;;;;;5048176;28;20428;-73
2022/11/28 01:21:28;;;;;;;12.60;7.77;;;6.50;78.40;;;;;;5038545;28;20467;-73
2022/11/28 01:23:54;;;;;;;12.80;8.00;;;6.50;78.40;;;;;;5034740;28;20208;-73
2022/11/28 01:26:26;;;;;;;10.33;7.23;;;6.50;78.30;;;;;;5044405;28;20197;-72
2022/11/28 01:28:52;;;;;;;12.37;7.90;;;6.60;78.00;;;;;;5044683;28;20202;-73
2022/11/28 01:31:20;;;;;;;11.43;7.13;;;6.60;77.80;;;;;;5041915;28;20475;-71
2022/11/28 01:33:46;;;;;;;13.20;8.37;;;6.60;77.80;;;;;;5045502;28;20416;-72
2022/11/28 01:36:13;;;;;;;13.60;8.00;;;6.60;77.60;;;;;;5046220;28;20514;-72
2022/11/28 01:38:40;;;;;;;16.43;8.13;;;6.60;77.30;;;;;;5046662;28;20447;-73
2022/11/28 01:41:06;;;;;;;13.50;7.70;;;6.70;77.30;;;;;;5040236;28;20456;-72
2022/11/28 01:43:32;;;;;;;15.40;7.80;;;6.70;77.30;;;;;;5048313;28;20477;-72
2022/11/28 01:45:58;;;;;;;13.57;8.07;;;6.70;77.10;;;;;;5048753;28;20492;-72
2022/11/28 01:48:28;;;;;;;12.90;7.30;;;6.70;77.30;;;;;;5032670;28;20467;-73
2022/11/28 01:50:58;;;;;;;14.10;9.07;;;6.70;77.40;;;;;;5027289;28;20808;-72
2022/11/28 01:53:27;;;;;;;14.00;8.57;;;6.70;77.60;;;;;;5025296;28;20454;-72
2022/11/28 01:56:02;;;;;;;13.60;9.30;;;6.70;77.60;;;;;;5029974;28;20427;-72
2022/11/28 01:58:29;;;;;;;17.87;9.63;;;6.70;77.70;;;;;;5026788;28;20419;-72
2022/11/28 02:00:55;;;;;;;12.73;9.03;;;6.70;78.10;;;;;;5021134;28;20464;-72
2022/11/28 02:03:25;;;;;;;17.30;10.37;;;6.60;78.40;;;;;;5029123;28;20424;-73
2022/11/28 02:05:52;;;;;;;16.83;9.43;;;6.50;78.60;;;;;;5030357;28;20181;-72
2022/11/28 02:08:18;;;;;;;13.07;8.77;;;6.50;79.00;;;;;;5030833;28;21052;-73
2022/11/28 02:11:02;;;;;;;15.00;8.50;;;6.30;79.20;;;;;;5026913;28;20523;-73
2022/11/28 02:13:33;;;;;;;12.57;8.10;;;6.30;79.30;;;;;;5027239;28;20173;-73
2022/11/28 02:16:27;;;;;;;14.50;8.97;;;6.30;79.20;;;;;;5030047;28;20491;-73
2022/11/28 02:19:14;;;;;;;13.40;8.10;;;6.20;79.50;;;;;;5030588;28;21084;-73
2022/11/28 02:21:46;;;;;;;13.20;7.40;;;6.30;79.70;;;;;;5025470;28;20955;-72
2022/11/28 02:24:26;;;;;;;13.27;8.17;;;6.20;79.60;;;;;;5029455;28;21001;-72
2022/11/28 02:26:57;;;;;;;10.40;8.00;;;6.30;79.60;;;;;;5030448;28;20416;-72
2022/11/28 02:29:51;;;;;;;13.37;8.90;;;6.20;79.20;;;;;;5030373;28;20466;-74
2022/11/28 02:32:37;;;;;;;15.20;8.20;;;6.10;79.30;;;;;;5054666;28;20435;-72
2022/11/28 02:35:10;;;;;;;13.40;8.67;;;6.20;79.30;;;;;;5030596;28;20412;-73
2022/11/28 02:37:40;;;;;;;17.30;9.70;;;6.20;78.90;;;;;;5030687;28;20799;-74
2022/11/28 02:40:11;;;;;;;14.67;9.20;;;6.30;78.70;;;;;;5026597;28;21121;-73
2022/11/28 02:43:02;;;;;;;14.93;8.87;;;6.30;78.40;;;;;;5029132;28;20741;-73
2022/11/28 02:45:49;;;;;;;12.87;8.93;;;6.30;78.60;;;;;;5026008;28;20440;-73
2022/11/28 02:48:28;;;;;;;16.77;9.27;;;6.20;78.30;;;;;;5030493;28;20582;-73
2022/11/28 02:51:30;;;;;;;15.80;9.47;;;6.10;78.60;;;;;;5024452;28;20543;-73
2022/11/28 02:53:57;;;;;;;14.80;8.97;;;6.10;78.70;;;;;;4995131;28;20435;-73
2022/11/28 02:56:24;;;;;;;15.90;8.67;;;6.20;78.60;;;;;;5030459;28;20447;-73
2022/11/28 02:58:50;;;;;;;13.97;8.40;;;6.20;78.60;;;;;;5030337;28;20419;-74
2022/11/28 03:01:20;;;;;;;17.03;9.90;;;6.20;79.50;;;;;;5024950;28;20852;-74
2022/11/28 03:04:20;;;;;;;13.97;8.77;;;6.30;80.00;;;;;;5029551;28;20486;-74
2022/11/28 03:07:23;;;;;;;15.40;9.60;;;6.20;80.00;;;;;;5029571;28;20455;-73
2022/11/28 03:10:12;;;;;;;15.87;8.83;;;6.30;79.90;;;;;;5026534;28;20450;-73
2022/11/28 03:13:05;;;;;;;18.33;9.50;;;6.30;79.70;;;;;;5029282;28;20431;-73
2022/11/28 03:15:57;;;;;;;19.03;10.07;;;6.30;79.70;;;;;;5033021;28;20419;-72
2022/11/28 03:18:29;;;;;;;15.43;9.20;;;6.30;79.90;;;;;;5032040;28;20508;-72
2022/11/28 03:21:14;;;;;;;20.50;9.70;;;6.30;79.90;;;;;;5024098;28;20459;-73
2022/11/28 03:23:49;;;;;;;14.27;8.67;;;6.20;79.70;;;;;;5046917;28;20469;-72
2022/11/28 03:26:32;;;;;;;16.23;9.20;;;6.30;79.60;;;;;;5044978;28;20558;-73
2022/11/28 03:29:22;;;;;;;19.20;8.83;;;6.30;79.20;;;;;;5058449;28;20471;-74
2022/11/28 03:31:55;;;;;;;16.33;9.87;;;6.30;79.30;;;;;;5037490;28;20448;-73
2022/11/28 03:34:27;;;;;;;16.60;9.20;;;6.20;79.00;;;;;;5046430;28;20435;-71
2022/11/28 03:36:58;;;;;;;16.37;9.30;;;6.10;79.20;;;;;;5049863;28;20419;-73
2022/11/28 03:39:30;;;;;;;13.77;8.97;;;6.30;79.20;;;;;;5037879;28;20446;-72
2022/11/28 03:42:03;;;;;;;13.60;8.73;;;6.40;78.10;;;;;;5032319;28;20440;-72
2022/11/28 03:44:34;;;;;;;12.43;8.27;;;6.30;78.10;;;;;;5040472;28;20436;-73
2022/11/28 03:47:03;;;;;;;15.77;8.73;;;6.30;78.40;;;;;;5050792;28;20500;-72
2022/11/28 03:49:34;;;;;;;14.90;8.00;;;6.30;78.60;;;;;;5050290;28;20427;-72
2022/11/28 03:52:11;;;;;;;15.60;8.70;;;6.30;78.30;;;;;;5050241;28;20478;-72
2022/11/28 03:54:46;;;;;;;14.20;9.07;;;6.20;78.40;;;;;;5049743;28;20412;-72
2022/11/28 03:57:16;;;;;;;14.20;9.20;;;6.20;78.90;;;;;;5049138;28;20426;-73
2022/11/28 03:59:48;;;;;;;13.53;9.00;;;6.20;79.00;;;;;;5040286;28;20426;-72
2022/11/28 04:02:23;;;;;;;16.00;9.80;;;6.20;79.20;;;;;;5028840;28;20424;-73
2022/11/28 04:05:12;;;;;;;15.83;8.70;;;6.20;79.30;;;;;;5029882;28;20999;-73
2022/11/28 04:07:44;;;;;;;11.27;7.83;;;6.20;79.60;;;;;;5032665;28;20471;-74
2022/11/28 04:10:20;;;;;;;17.57;9.33;;;6.30;79.50;;;;;;5027676;28;20452;-72
2022/11/28 04:12:53;;;;;;;11.53;8.07;;;6.30;79.20;;;;;;5031440;28;20887;-73
2022/11/28 04:15:27;;;;;;;16.30;8.57;;;6.30;79.30;;;;;;5032364;28;20412;-74
2022/11/28 04:18:05;;;;;;;14.07;8.10;;;6.30;79.50;;;;;;5032981;28;20427;-73
2022/11/28 04:20:49;;;;;;;15.60;9.73;;;6.30;79.50;;;;;;5027333;28;20451;-73
2022/11/28 04:23:17;;;;;;;18.60;10.30;;;6.40;79.50;;;;;;5031952;28;20505;-74
2022/11/28 04:25:54;;;;;;;16.13;9.63;;;6.30;79.20;;;;;;5032348;28;20434;-74
2022/11/28 04:28:24;;;;;;;14.70;8.77;;;6.30;79.50;;;;;;5065300;28;20461;-73
2022/11/28 04:30:52;;;;;;;21.03;10.10;;;6.30;79.50;;;;;;5029040;28;20853;-73
2022/11/28 04:33:20;;;;;;;16.60;8.90;;;6.20;79.90;;;;;;5028309;28;20426;-73
2022/11/28 04:35:50;;;;;;;18.17;10.03;;;6.20;80.20;;;;;;5029935;28;20440;-74
2022/11/28 04:38:16;;;;;;;16.40;9.80;;;6.30;80.50;;;;;;5027770;28;20517;-72
2022/11/28 04:41:13;;;;;;;16.07;8.77;;;6.40;80.30;;;;;;5027624;28;20921;-73
2022/11/28 04:43:43;;;;;;;15.43;8.83;;;6.40;80.30;;;;;;4988722;28;20437;-74
2022/11/28 04:46:20;;;;;;;16.73;8.97;;;6.40;80.30;;;;;;4986731;28;20849;-72
2022/11/28 04:48:46;;;;;;;14.97;8.97;;;6.40;80.50;;;;;;4973288;28;20484;-73
2022/11/28 04:51:20;;;;;;;17.07;9.00;;;6.40;80.50;;;;;;4988635;28;20984;-73
2022/11/28 04:54:14;;;;;;;17.57;9.13;;;6.30;80.60;;;;;;4990298;28;20199;-73
2022/11/28 04:56:48;;;;;;;15.73;9.27;;;6.30;80.80;;;;;;4988669;28;20509;-75
2022/11/28 04:59:14;;;;;;;13.77;9.20;;;6.30;80.60;;;;;;4990876;28;20804;-72
2022/11/28 05:01:42;;;;;;;14.47;9.03;;;6.30;80.50;;;;;;4987805;28;20496;-73
2022/11/28 05:04:08;;;;;;;15.03;8.90;;;6.30;80.60;;;;;;4989788;28;20523;-72
2022/11/28 05:06:35;;;;;;;14.20;9.37;;;6.30;80.50;;;;;;4990191;28;20887;-72
2022/11/28 05:09:02;;;;;;;15.80;8.63;;;6.10;80.50;;;;;;4990548;28;20222;-73
2022/11/28 05:11:28;;;;;;;11.10;8.10;;;6.10;81.20;;;;;;4971385;28;20527;-73
2022/11/28 05:13:54;;;;;;;15.17;8.37;;;6.20;81.40;;;;;;4990394;28;20430;-73
2022/11/28 05:16:21;;;;;;;14.47;8.90;;;6.30;81.20;;;;;;4973135;28;20529;-73
2022/11/28 05:18:47;;;;;;;16.17;9.10;;;6.30;80.90;;;;;;4990245;28;20429;-73
2022/11/28 05:21:13;;;;;;;13.80;8.17;;;6.30;81.10;;;;;;5039916;28;20467;-73
2022/11/28 05:23:41;;;;;;;19.57;10.27;;;6.30;81.20;;;;;;5031556;28;20995;-73
2022/11/28 05:26:09;;;;;;;20.20;9.13;;;6.20;81.20;;;;;;5031663;28;20494;-72
2022/11/28 05:28:35;;;;;;;13.47;8.43;;;6.20;81.50;;;;;;5030531;28;20524;-74
2022/11/28 05:31:01;;;;;;;13.63;8.20;;;6.00;82.10;;;;;;5029471;28;20554;-74
2022/11/28 05:33:29;;;;;;;14.57;8.43;;;6.00;82.20;;;;;;5035772;28;20231;-73
2022/11/28 05:35:55;;;;;;;15.70;8.60;;;6.10;82.20;;;;;;5035528;28;20423;-73
2022/11/28 05:38:21;;;;;;;16.40;8.70;;;6.10;82.50;;;;;;5035680;28;20420;-72
2022/11/28 05:40:47;;;;;;;14.60;8.63;;;6.10;82.50;;;;;;5036777;28;20588;-75
2022/11/28 05:43:12;;;;;;;12.50;7.90;;;6.10;82.40;;;;;;5039248;28;20535;-73
2022/11/28 05:45:42;;;;;;;14.83;8.83;;;6.00;82.80;;;;;;5030340;28;20544;-72
2022/11/28 05:48:08;;;;;;;13.33;8.03;;;6.00;83.30;;;;;;5031469;28;20212;-73
2022/11/28 05:50:33;;;;;;;15.30;8.50;;;6.00;83.10;;;;;;5024154;28;20460;-74
2022/11/28 05:52:59;;;;;;;13.90;8.27;;;5.90;83.10;;;;;;5030855;28;20285;-74
2022/11/28 05:55:25;;;;;;;16.17;9.50;;;5.90;82.70;;;;;;5030800;28;20181;-73
2022/11/28 05:57:50;;;;;;;18.17;9.43;;;5.80;82.40;;;;;;5031429;28;20188;-74
2022/11/28 06:00:16;;;;;;;25.53;9.60;;;5.80;82.70;;;;;;5028309;28;20213;-74
2022/11/28 06:02:42;;;;;;;13.50;8.47;;;5.80;82.70;;;;;;5030434;28;20219;-73
2022/11/28 06:05:08;;;;;;;19.80;9.27;;;5.80;82.80;;;;;;5030478;28;20866;-73
2022/11/28 06:07:34;;;;;;;14.90;9.13;;;6.00;82.70;;;;;;5030980;28;20593;-72
2022/11/28 06:09:59;;;;;;;17.00;9.20;;;6.00;82.40;;;;;;5029976;28;20455;-74
2022/11/28 06:12:25;;;;;;;13.90;8.87;;;6.00;82.10;;;;;;5029063;28;20178;-74
2022/11/28 06:14:51;;;;;;;12.30;7.63;;;6.10;82.40;;;;;;5032006;28;20188;-72
2022/11/28 06:17:16;;;;;;;12.23;7.60;;;6.10;82.40;;;;;;5039773;28;20185;-73
2022/11/28 06:19:42;;;;;;;14.30;7.90;;;6.10;82.10;;;;;;5038386;28;20192;-73
2022/11/28 06:22:08;;;;;;;13.13;7.63;;;6.20;81.70;;;;;;5039856;28;20200;-72
2022/11/28 06:24:34;;;;;;;12.97;8.30;;;6.30;81.10;;;;;;5040469;28;20196;-72
2022/11/28 06:26:59;;;;;;;12.17;7.20;;;6.50;80.00;;;;;;5040838;28;20442;-74
2022/11/28 06:29:25;;;;;;;14.90;7.80;;;6.40;79.60;;;;;;5042747;28;20211;-73
2022/11/28 06:31:51;;;;;;;19.90;9.93;;;6.40;80.00;;;;;;5032381;28;20263;-74
2022/11/28 06:34:16;;;;;;;14.90;8.10;;;6.30;79.90;;;;;;5031023;28;20193;-72
2022/11/28 06:36:43;;;;;;;12.20;7.67;;;6.30;80.00;;;;;;5030757;28;20185;-75
2022/11/28 06:39:15;;;;;;;12.90;7.47;;;6.40;80.20;;;;;;5030118;28;20185;-74
2022/11/28 06:41:41;;;;;;;17.13;8.07;;;6.50;80.00;;;;;;5025134;28;20470;-73
2022/11/28 06:44:10;;;;;;;17.73;9.10;;;6.50;80.00;;;;;;5030958;28;20513;-75
2022/11/28 06:46:36;;;;;;;13.80;8.97;;;6.50;79.90;;;;;;5030742;28;20475;-74
2022/11/28 06:49:02;;;;;;;13.57;8.10;;;6.50;79.90;;;;;;5030653;28;20483;-73
2022/11/28 06:51:28;;;;;;;15.70;8.00;;;6.60;79.90;;;;;;5026664;28;20470;-74
2022/11/28 06:53:54;;;;;;;13.30;7.90;;;6.70;79.70;;;;;;5030695;28;20435;-75
2022/11/28 06:56:20;;;;;;;16.30;8.33;;;6.70;79.60;;;;;;5030008;28;20548;-74
2022/11/28 06:58:46;;;;;;;10.90;7.23;;;6.70;79.50;;;;;;5030659;28;20952;-74
2022/11/28 07:01:19;;;;;;;16.40;8.00;;;6.70;79.50;;;;;;5025687;28;21053;-73
2022/11/28 07:03:45;;;;;;;19.60;7.87;;;6.70;79.30;;;;;;5029473;28;20473;-74
2022/11/28 07:06:12;;;;;;;11.87;7.80;;;6.60;79.70;;;;;;5030817;28;20427;-76
2022/11/28 07:08:38;;;;;;;17.17;7.50;;;6.50;79.90;;;;;;5032520;28;20541;-76
2022/11/28 07:11:10;;;;;;;12.07;8.00;;;6.60;80.30;;;;;;5031376;28;20440;-75
2022/11/28 07:13:36;;;;;;;19.87;10.63;;;6.70;79.90;;;;;;5030054;28;20793;-72
2022/11/28 07:16:02;;;;;;;15.50;10.13;;;6.70;79.70;;;;;;5024649;28;20455;-72
2022/11/28 07:18:27;;;;;;;16.27;9.60;;;6.60;80.30;;;;;;5030025;28;20201;-72
2022/11/28 07:20:53;;;;;;;15.47;8.87;;;6.50;79.90;;;;;;5026760;28;20525;-71
2022/11/28 07:23:18;;;;;;;30.03;14.00;;;6.60;80.30;;;;;;5029247;28;20189;-73
2022/11/28 07:25:44;;;;;;;18.80;11.40;;;6.60;80.00;;;;;;5027913;28;20186;-72
2022/11/28 07:28:10;;;;;;;19.87;11.50;;;6.50;80.50;;;;;;5030432;28;20220;-73
2022/11/28 07:30:35;;;;;;;25.00;10.23;;;6.60;80.60;;;;;;5023909;28;20261;-72
2022/11/28 07:33:01;;;;;;;24.83;10.70;;;6.60;80.60;;;;;;5027186;28;20723;-73
2022/11/28 07:35:26;;;;;;;25.37;11.07;;;6.50;80.50;;;;;;5026138;28;20189;-75
2022/11/28 07:37:52;;;;;;;20.83;9.70;;;6.50;80.60;;;;;;5027492;28;20205;-73
2022/11/28 07:40:19;;;;;;;20.80;10.20;;;6.50;80.60;;;;;;5018967;28;20214;-75
2022/11/28 07:42:45;;;;;;;15.03;9.33;;;6.50;80.90;;;;;;5029167;28;20248;-73
2022/11/28 07:45:10;;;;;;;15.90;10.00;;;6.50;81.10;;;;;;5029310;28;20444;-74
2022/11/28 07:47:36;;;;;;;18.10;9.77;;;6.60;81.20;;;;;;5028824;28;20209;-74
2022/11/28 07:50:02;;;;;;;16.27;9.13;;;6.70;80.90;;;;;;5027634;28;20227;-73
2022/11/28 07:52:28;;;;;;;19.77;9.80;;;6.80;80.50;;;;;;5032282;28;20232;-74
2022/11/28 07:54:53;;;;;;;19.97;9.37;;;6.80;80.30;;;;;;5032372;28;20525;-73
2022/11/28 07:57:19;;;;;;;20.70;10.60;;;6.80;79.90;;;;;;5032067;28;20420;-73
2022/11/28 07:59:45;;;;;;;16.00;9.50;;;6.90;79.60;;;;;;5029261;28;20263;-74
2022/11/28 08:02:11;;;;;;;19.67;10.37;;;6.90;79.60;;;;;;5028726;28;20565;-72
2022/11/28 08:04:37;;;;;;;21.57;10.93;;;6.90;79.20;;;;;;5032831;28;20196;-74
2022/11/28 08:07:03;;;;;;;22.13;11.80;;;6.80;79.50;;;;;;5032365;28;20443;-74
2022/11/28 08:09:30;;;;;;;21.40;11.00;;;6.80;79.90;;;;;;5030077;28;20498;-76
2022/11/28 08:11:56;;;;;;;19.20;11.23;;;6.90;79.90;;;;;;5021454;28;20205;-75
2022/11/28 08:14:22;;;;;;;19.93;10.27;;;7.00;79.60;;;;;;5030511;28;20422;-77
2022/11/28 08:16:48;;;;;;;21.07;11.40;;;6.90;79.50;;;;;;5026947;28;20413;-72
2022/11/28 08:19:14;;;;;;;22.63;11.03;;;6.90;79.20;;;;;;5031342;28;20188;-75
2022/11/28 08:21:39;;;;;;;23.43;10.60;;;6.90;79.20;;;;;;5026524;28;20464;-75
2022/11/28 08:24:06;;;;;;;22.00;10.03;;;6.80;79.50;;;;;;5027827;28;20239;-75
2022/11/28 08:26:33;;;;;;;22.30;10.53;;;6.70;79.60;;;;;;5027348;28;20264;-72
2022/11/28 08:29:00;;;;;;;17.80;10.10;;;6.70;80.00;;;;;;5032625;28;20529;-74
2022/11/28 08:31:29;;;;;;;19.87;10.63;;;6.80;79.90;;;;;;5029213;28;20455;-75
2022/11/28 08:33:56;;;;;;;20.17;10.97;;;6.90;80.00;;;;;;5035405;28;20412;-75
2022/11/28 08:36:22;;;;;;;17.50;10.57;;;6.90;79.90;;;;;;5036679;28;20973;-75
2022/11/28 08:38:48;;;;;;;22.30;11.67;;;6.90;80.00;;;;;;5029409;28;20522;-73
2022/11/28 08:41:17;;;;;;;16.67;9.40;;;6.90;80.00;;;;;;5033615;28;20220;-73
2022/11/28 08:43:43;;;;;;;19.33;10.63;;;7.10;79.70;;;;;;5034161;28;20435;-72
2022/11/28 08:46:11;;;;;;;17.43;10.13;;;7.20;79.50;;;;;;5050382;28;20781;-73
2022/11/28 08:48:38;;;;;;;19.67;10.20;;;7.20;79.00;;;;;;5054120;28;20455;-74
2022/11/28 08:51:05;;;;;;;22.43;11.50;;;7.20;79.00;;;;;;5047893;28;20486;-73
2022/11/28 08:53:31;;;;;;;17.23;10.00;;;7.20;78.90;;;;;;5049023;28;20519;-73
2022/11/28 08:55:56;;;;;;;17.93;9.93;;;7.00;78.70;;;;;;5050805;28;20428;-72
2022/11/28 08:58:22;;;;;;;17.27;9.50;;;6.90;79.00;;;;;;5051456;28;20487;-73
2022/11/28 09:00:48;;;;;;;26.33;10.40;;;6.90;79.20;;;;;;5051875;28;20236;-73
2022/11/28 09:03:15;;;;;;;17.43;10.17;;;6.70;79.60;;;;;;5053765;28;20181;-76
2022/11/28 09:05:42;;;;;;;17.93;10.03;;;6.80;79.90;;;;;;5039245;28;20670;-73
2022/11/28 09:08:08;;;;;;;19.93;10.43;;;7.00;80.00;;;;;;5033614;28;20467;-73
2022/11/28 09:10:38;;;;;;;15.33;9.23;;;7.10;79.70;;;;;;5027099;28;20801;-72
2022/11/28 09:13:04;;;;;;;18.07;9.10;;;7.30;79.20;;;;;;5031162;28;20477;-73
2022/11/28 09:15:31;;;;;;;23.60;10.60;;;7.30;78.70;;;;;;5031099;28;20863;-73
2022/11/28 09:17:56;;;;;;;14.40;8.70;;;7.40;78.10;;;;;;5032102;28;20458;-72
2022/11/28 09:20:22;;;;;;;25.93;9.77;;;7.50;78.10;;;;;;5021423;28;20491;-76
2022/11/28 09:22:47;;;;;;;15.80;9.23;;;7.60;77.70;;;;;;5031949;28;20189;-73
2022/11/28 09:25:13;;;;;;;18.63;10.40;;;7.60;77.00;;;;;;5031548;28;20185;-72
2022/11/28 09:27:39;;;;;;;19.87;9.87;;;7.40;77.40;;;;;;5031181;28;20224;-73
2022/11/28 09:30:06;;;;;;;19.13;10.63;;;7.60;77.70;;;;;;5028412;28;20547;-73
2022/11/28 09:32:32;;;;;;;21.33;10.63;;;7.80;77.10;;;;;;5028545;28;20189;-72
2022/11/28 09:34:57;;;;;;;23.37;10.20;;;7.90;76.70;;;;;;5026870;28;20412;-72
2022/11/28 09:37:23;;;;;;;18.43;10.00;;;8.10;76.20;;;;;;5036141;28;20420;-73
2022/11/28 09:39:50;;;;;;;23.37;10.83;;;8.10;75.90;;;;;;5038878;28;20189;-73
2022/11/28 09:42:27;;;;;;;22.27;12.10;;;8.20;76.10;;;;;;5027834;28;20188;-72
2022/11/28 09:45:21;;;;;;;22.70;12.13;;;8.10;76.20;;;;;;5033932;28;20488;-72
2022/11/28 09:47:55;;;;;;;28.57;11.37;;;8.00;76.20;;;;;;5032948;28;20472;-72
2022/11/28 09:50:24;;;;;;;23.17;12.20;;;8.00;76.50;;;;;;5032771;28;20451;-72
2022/11/28 09:52:53;;;;;;;18.00;10.63;;;8.00;76.40;;;;;;5034975;28;20495;-72
2022/11/28 09:55:22;;;;;;;24.63;11.07;;;8.00;76.40;;;;;;5032561;28;20408;-73
2022/11/28 09:57:50;;;;;;;24.27;12.20;;;8.00;76.20;;;;;;5032566;28;20750;-74
2022/11/28 10:00:29;;;;;;;22.77;11.30;;;8.00;76.20;;;;;;5029858;28;20467;-75
2022/11/28 10:03:16;;;;;;;20.43;10.30;;;7.90;76.80;;;;;;5030390;28;20559;-75
2022/11/28 10:05:56;;;;;;;26.60;11.77;;;8.00;77.00;;;;;;5031376;28;20420;-74
2022/11/28 10:08:47;;;;;;;20.53;11.00;;;8.20;76.80;;;;;;5033589;28;21147;-73
2022/11/28 10:11:40;;;;;;;21.80;11.67;;;8.30;76.40;;;;;;5060078;28;20464;-73
2022/11/28 10:14:30;;;;;;;28.43;12.87;;;8.10;76.10;;;;;;5035167;28;20408;-73
2022/11/28 10:16:59;;;;;;;23.03;12.17;;;8.10;76.70;;;;;;5033895;28;20639;-73
2022/11/28 10:19:38;;;;;;;19.60;11.03;;;8.00;76.70;;;;;;5035067;28;20521;-72
2022/11/28 10:22:12;;;;;;;20.53;11.67;;;8.20;77.00;;;;;;5035109;28;20439;-75
2022/11/28 10:24:43;;;;;;;21.37;11.47;;;8.30;76.50;;;;;;5033837;28;20955;-75
2022/11/28 10:27:12;;;;;;;16.93;11.60;;;8.20;76.20;;;;;;5031293;28;20503;-75
2022/11/28 10:29:55;;;;;;;19.77;10.97;;;8.10;76.80;;;;;;5030028;28;20464;-73
2022/11/28 10:32:41;;;;;;;29.60;11.73;;;8.20;77.00;;;;;;5028217;28;20420;-74
2022/11/28 10:35:12;;;;;;;21.90;11.83;;;8.10;76.70;;;;;;5030137;28;20834;-75
2022/11/28 10:37:38;;;;;;;26.40;11.90;;;8.00;77.10;;;;;;5031028;28;20420;-74
2022/11/28 10:40:16;;;;;;;28.17;11.23;;;8.10;77.60;;;;;;5026509;28;20463;-75
2022/11/28 10:42:54;;;;;;;28.53;11.60;;;8.10;77.00;;;;;;5028925;28;20193;-74
2022/11/28 10:45:29;;;;;;;22.53;11.37;;;8.00;76.80;;;;;;5025986;28;20454;-75
2022/11/28 10:48:23;;;;;;;17.07;10.13;;;8.00;76.80;;;;;;5032181;28;20499;-74
2022/11/28 10:51:10;;;;;;;30.13;10.13;;;8.10;76.80;;;;;;5030703;28;20463;-75
2022/11/28 10:53:50;;;;;;;22.43;11.87;;;8.30;76.80;;;;;;5034694;28;20416;-76
2022/11/28 10:56:28;;;;;;;20.93;11.23;;;8.20;75.90;;;;;;5037349;28;20518;-73
2022/11/28 10:59:15;;;;;;;18.40;11.53;;;8.20;76.10;;;;;;5037378;28;20423;-74
2022/11/28 11:01:41;;;;;;;18.10;10.30;;;8.20;76.20;;;;;;5028849;28;20548;-74
2022/11/28 11:04:22;;;;;;;23.87;12.13;;;8.00;76.40;;;;;;5034851;28;20838;-75
2022/11/28 11:07:08;;;;;;;25.50;12.77;;;7.90;77.10;;;;;;5031284;28;20196;-75
2022/11/28 11:09:34;;;;;;;20.47;10.70;;;7.90;77.30;;;;;;5029975;28;20477;-73
2022/11/28 11:12:00;;;;;;;23.73;11.97;;;8.00;77.40;;;;;;5028831;28;21385;-77
2022/11/28 11:14:40;;;;;;;24.50;12.90;;;8.00;77.10;;;;;;5031582;28;20181;-75
2022/11/28 11:17:06;;;;;;;24.60;11.20;;;8.10;77.40;;;;;;5031419;28;20648;-76
2022/11/28 11:19:35;;;;;;;22.17;11.53;;;8.20;77.30;;;;;;5032515;28;20438;-76
2022/11/28 11:22:06;;;;;;;21.33;11.50;;;8.30;77.00;;;;;;5031583;28;20482;-76
2022/11/28 11:24:32;;;;;;;22.33;10.93;;;8.40;76.70;;;;;;5033293;28;20428;-77
2022/11/28 11:27:18;;;;;;;21.90;10.70;;;8.50;76.50;;;;;;5033451;28;20543;-75
2022/11/28 11:29:44;;;;;;;25.67;11.63;;;8.70;76.50;;;;;;5033686;28;20181;-76
2022/11/28 11:32:24;;;;;;;26.70;11.87;;;8.60;76.40;;;;;;5034035;28;20499;-76
2022/11/28 11:34:50;;;;;;;18.40;11.07;;;8.60;77.00;;;;;;5041146;28;20414;-74
2022/11/28 11:37:19;;;;;;;25.03;12.10;;;8.80;77.30;;;;;;5041847;28;20420;-72
2022/11/28 11:39:54;;;;;;;24.93;11.93;;;8.60;76.40;;;;;;5039995;28;20420;-72
2022/11/28 11:42:26;;;;;;;22.50;11.03;;;8.40;77.80;;;;;;5046192;28;20491;-74
2022/11/28 11:44:52;;;;;;;17.83;10.20;;;8.40;78.30;;;;;;5044944;28;20420;-74
2022/11/28 11:47:18;;;;;;;24.77;14.00;;;8.50;79.00;;;;;;5034006;28;20431;-73
2022/11/28 11:49:48;;;;;;;24.20;12.23;;;8.70;79.20;;;;;;5034252;28;20438;-72
2022/11/28 11:52:17;;;;;;;20.00;11.97;;;8.70;79.20;;;;;;5031945;28;20431;-72
2022/11/28 11:54:57;;;;;;;19.70;11.57;;;8.60;79.60;;;;;;5031766;28;21098;-72
2022/11/28 11:57:36;;;;;;;21.50;12.10;;;8.50;80.20;;;;;;5033370;28;20427;-74
2022/11/28 12:00:08;;;;;;;21.43;11.33;;;8.50;80.30;;;;;;5032357;28;20466;-72
2022/11/28 12:02:42;;;;;;;17.60;11.37;;;8.60;80.90;;;;;;5035930;28;20404;-76
2022/11/28 12:05:16;;;;;;;18.97;11.33;;;8.90;80.80;;;;;;5036408;28;20447;-74
2022/11/28 12:07:59;;;;;;;20.23;11.40;;;9.00;80.20;;;;;;5038634;28;20538;-74
2022/11/28 12:10:28;;;;;;;17.90;11.27;;;9.00;79.90;;;;;;5027520;28;20444;-74
2022/11/28 12:12:54;;;;;;;22.70;13.03;;;9.10;80.00;;;;;;5039103;28;20434;-74
2022/11/28 12:15:44;;;;;;;22.93;12.80;;;9.10;79.70;;;;;;5035357;28;20469;-75
2022/11/28 12:18:25;;;;;;;24.20;11.47;;;9.00;79.70;;;;;;5039038;28;20431;-75
2022/11/28 12:21:05;;;;;;;20.10;12.80;;;9.00;80.30;;;;;;5030003;28;20473;-73
2022/11/28 12:23:37;;;;;;;25.37;14.00;;;9.20;80.80;;;;;;5033375;28;20419;-75
2022/11/28 12:26:25;;;;;;;23.63;12.67;;;9.20;80.90;;;;;;5032515;28;20427;-74
2022/11/28 12:29:10;;;;;;;26.10;14.23;;;9.30;81.70;;;;;;5032281;28;20472;-76
2022/11/28 12:32:16;;;;;;;19.70;12.87;;;9.50;81.90;;;;;;5027370;28;20526;-72
2022/11/28 12:35:20;;;;;;;22.20;13.57;;;9.40;81.10;;;;;;5031368;28;20420;-74
2022/11/28 12:38:23;;;;;;;22.83;12.53;;;9.30;81.10;;;;;;5032146;28;20454;-76
2022/11/28 12:40:56;;;;;;;18.67;12.00;;;9.50;81.80;;;;;;5030420;28;20495;-75
2022/11/28 12:43:56;;;;;;;23.83;13.77;;;9.50;81.70;;;;;;5038220;28;20778;-76
2022/11/28 12:46:49;;;;;;;24.57;11.60;;;9.40;81.70;;;;;;5032846;28;20534;-75
2022/11/28 12:49:39;;;;;;;20.40;12.27;;;9.40;81.40;;;;;;5036110;28;20489;-74
2022/11/28 12:52:14;;;;;;;24.43;14.10;;;9.20;80.80;;;;;;5035537;28;20435;-75
2022/11/28 12:54:54;;;;;;;26.10;14.10;;;9.00;82.40;;;;;;5033288;28;20776;-74
2022/11/28 12:57:37;;;;;;;23.20;14.50;;;8.90;83.30;;;;;;5028671;28;20512;-75
2022/11/28 13:00:25;;;;;;;24.07;13.70;;;9.10;84.00;;;;;;5031747;28;20483;-75
2022/11/28 13:03:17;;;;;;;31.07;15.30;;;9.00;83.10;;;;;;5032540;28;20452;-75
2022/11/28 13:06:08;;;;;;;24.27;14.20;;;8.90;83.70;;;;;;5012763;28;20827;-75